KEIR

Eugene Island

Eugene Island, Louisiana, USA
METAR KEIR 190855Z AUTO VRB03KT 10SM CLR 29/25 A2995 RMK A01
Observed Flight Rules
Sep-19 @ 08:55 UTC (9 minutes ago) Visual Flight Rules
Wind Visibility Clouds
Variable at 3 knots 10 miles
  • Clear skies
Temperatures Readings
Current 29°C / 84°F
Dewpoint 25°C / 77°F
Humidity 79%
Altimeter 29.95" Hg
Pressure 1014 hPa
Elevation 28
METAR KEIR 190855Z AUTO VRB03KT 10SM CLR 29/25 A2995 RMK A01
Observed Flight Rules
Sep-19 @ 08:55 UTC
(9 minutes ago)
VFR
Wind Visibility
Variable at 3 knots 10 miles
Clouds
  • Clear skies
Temperature Dewpoint
29°C / 84°F 25°C / 77°F
Humidity Altimeter Pressure
79% 29.95" Hg 1014 hPa